createdAt,value
2022-12-08T00:01:08.495Z,0.22
2022-12-08T00:03:35.406Z,0.15
2022-12-08T00:06:22.220Z,0.20
2022-12-08T00:09:07.738Z,0.20
2022-12-08T00:11:34.746Z,0.18
2022-12-08T00:14:01.581Z,0.13
2022-12-08T00:16:28.442Z,0.10
2022-12-08T00:18:55.147Z,0.06
2022-12-08T00:21:21.750Z,0.07
2022-12-08T00:23:48.381Z,0.03
2022-12-08T00:26:15.397Z,0.03
2022-12-08T00:28:42.085Z,0.00
2022-12-08T00:31:10.459Z,-0.05
2022-12-08T00:33:37.512Z,-0.08
2022-12-08T00:36:13.207Z,-0.09
2022-12-08T00:38:40.739Z,-0.11
2022-12-08T00:41:12.533Z,-0.10
2022-12-08T00:43:39.272Z,-0.05
2022-12-08T00:46:06.264Z,0.03
2022-12-08T00:48:32.949Z,-0.03
2022-12-08T00:50:59.574Z,-0.02
2022-12-08T00:53:26.209Z,-0.06
2022-12-08T00:55:52.872Z,-0.13
2022-12-08T00:58:19.443Z,-0.12
2022-12-08T01:00:46.095Z,-0.28
2022-12-08T01:03:13.439Z,-0.38
2022-12-08T01:05:40.147Z,-0.41
2022-12-08T01:08:08.639Z,-0.51
2022-12-08T01:10:36.730Z,-0.56
2022-12-08T01:13:04.149Z,-0.53
2022-12-08T01:15:30.800Z,-0.49
2022-12-08T01:17:57.490Z,-0.51
2022-12-08T01:20:24.329Z,-0.54
2022-12-08T01:22:50.989Z,-0.59
2022-12-08T01:25:17.820Z,-0.58
2022-12-08T01:27:44.414Z,-0.64
2022-12-08T01:30:11.466Z,-0.74
2022-12-08T01:32:37.981Z,-0.81
2022-12-08T01:35:04.829Z,-0.87
2022-12-08T01:37:31.432Z,-0.85
2022-12-08T01:39:58.001Z,-0.83
2022-12-08T01:42:25.138Z,-0.83
2022-12-08T01:45:03.964Z,-1.00
2022-12-08T01:47:45.302Z,-1.16
2022-12-08T01:50:14.981Z,-1.18
2022-12-08T01:52:45.117Z,-1.18
2022-12-08T01:55:23.067Z,-1.17
2022-12-08T01:57:52.943Z,-1.21
2022-12-08T02:00:21.819Z,-1.19
2022-12-08T02:02:57.475Z,-1.24
2022-12-08T02:05:28.305Z,-1.28
2022-12-08T02:07:56.276Z,-1.36
2022-12-08T02:10:27.305Z,-1.40
2022-12-08T02:12:56.392Z,-1.32
2022-12-08T02:15:32.798Z,-1.34
2022-12-08T02:18:22.703Z,-1.40
2022-12-08T02:21:29.183Z,-1.40
2022-12-08T02:24:18.436Z,-1.32
2022-12-08T02:26:47.897Z,-1.36
2022-12-08T02:29:23.753Z,-1.36
2022-12-08T02:32:15.060Z,-1.42
2022-12-08T02:34:52.079Z,-1.31
2022-12-08T02:37:47.516Z,-1.28
2022-12-08T02:40:35.506Z,-1.27
2022-12-08T02:43:29.880Z,-1.30
2022-12-08T02:46:07.864Z,-1.28
2022-12-08T02:48:35.100Z,-1.26
2022-12-08T02:51:02.657Z,-1.11
2022-12-08T02:53:32.477Z,-1.04
2022-12-08T02:56:31.317Z,-0.90
2022-12-08T02:59:00.814Z,-0.96
2022-12-08T03:01:36.424Z,-0.94
2022-12-08T03:04:28.025Z,-0.98
2022-12-08T03:07:19.355Z,-1.07
2022-12-08T03:10:03.072Z,-1.01
2022-12-08T03:12:52.400Z,-0.93
2022-12-08T03:15:21.546Z,-0.90
2022-12-08T03:17:54.869Z,-0.88
2022-12-08T03:20:24.509Z,-1.08
2022-12-08T03:22:54.361Z,-1.08
2022-12-08T03:25:24.629Z,-1.00
2022-12-08T03:27:52.056Z,-1.10
2022-12-08T03:30:18.952Z,-1.18
2022-12-08T03:32:58.625Z,-1.21
2022-12-08T03:35:29.606Z,-1.13
2022-12-08T03:38:11.887Z,-1.12
2022-12-08T03:40:39.235Z,-0.98
2022-12-08T03:43:05.956Z,-0.97
2022-12-08T03:45:32.555Z,-0.88
2022-12-08T03:47:59.306Z,-0.78
2022-12-08T03:50:26.285Z,-0.75
2022-12-08T03:52:52.940Z,-0.81
2022-12-08T03:55:19.952Z,-0.85
2022-12-08T03:57:46.549Z,-0.79
2022-12-08T04:00:17.053Z,-0.83
2022-12-08T04:02:43.876Z,-0.90
2022-12-08T04:05:10.626Z,-0.92
2022-12-08T04:07:38.023Z,-0.90
2022-12-08T04:10:06.017Z,-0.96
2022-12-08T04:12:32.893Z,-0.94
2022-12-08T04:14:59.511Z,-0.97
2022-12-08T04:17:26.133Z,-0.98
2022-12-08T04:19:52.829Z,-0.97
2022-12-08T04:22:20.150Z,-1.03
2022-12-08T04:25:04.121Z,-0.98
2022-12-08T04:27:30.823Z,-0.96
2022-12-08T04:29:57.505Z,-0.88
2022-12-08T04:32:24.160Z,-0.98
2022-12-08T04:34:50.791Z,-0.96
2022-12-08T04:37:17.340Z,-1.05
2022-12-08T04:39:44.262Z,-1.05
2022-12-08T04:42:10.938Z,-0.98
2022-12-08T04:44:37.542Z,-1.04
2022-12-08T04:47:04.366Z,-1.17
2022-12-08T04:49:31.115Z,-1.29
2022-12-08T04:51:57.741Z,-1.20
2022-12-08T04:54:24.372Z,-1.09
2022-12-08T04:56:50.978Z,-1.14
2022-12-08T04:59:17.584Z,-1.22
2022-12-08T05:01:44.263Z,-0.99
2022-12-08T05:04:11.094Z,-1.05
2022-12-08T05:06:37.762Z,-0.96
2022-12-08T05:09:04.542Z,-0.86
2022-12-08T05:11:31.130Z,-0.86
2022-12-08T05:13:57.745Z,-0.89
2022-12-08T05:16:24.533Z,-1.01
2022-12-08T05:18:51.152Z,-0.99
2022-12-08T05:21:17.828Z,-1.10
2022-12-08T05:23:44.461Z,-1.17
2022-12-08T05:26:11.013Z,-1.12
2022-12-08T05:28:42.285Z,-1.23
2022-12-08T05:31:10.796Z,-1.06
2022-12-08T05:33:37.550Z,-0.96
2022-12-08T05:36:04.253Z,-0.90
2022-12-08T05:38:30.866Z,-0.90
2022-12-08T05:40:57.511Z,-0.76
2022-12-08T05:43:25.905Z,-0.82
2022-12-08T05:45:52.650Z,-0.83
2022-12-08T05:48:19.416Z,-0.74
2022-12-08T05:50:49.929Z,-0.69
2022-12-08T05:53:17.796Z,-0.70
2022-12-08T05:55:44.692Z,-0.67
2022-12-08T05:58:17.433Z,-0.68
2022-12-08T06:00:44.354Z,-0.65
2022-12-08T06:03:12.432Z,-0.57
2022-12-08T06:05:40.172Z,-0.57
2022-12-08T06:08:06.840Z,-0.55
2022-12-08T06:10:34.184Z,-0.45
2022-12-08T06:13:00.819Z,-0.35
2022-12-08T06:15:27.494Z,-0.62
2022-12-08T06:17:54.084Z,-0.68
2022-12-08T06:20:20.718Z,-0.66
2022-12-08T06:22:47.433Z,-0.56
2022-12-08T06:25:13.958Z,-0.67
2022-12-08T06:27:40.584Z,-0.60
2022-12-08T06:30:07.943Z,-0.44
2022-12-08T06:32:34.605Z,-0.43
2022-12-08T06:35:03.372Z,-0.51
2022-12-08T06:37:30.101Z,-0.52
2022-12-08T06:39:56.995Z,-0.38
2022-12-08T06:42:43.165Z,-0.47
2022-12-08T06:45:14.392Z,-0.59
2022-12-08T06:47:41.385Z,-0.49
2022-12-08T06:50:09.811Z,-0.40
2022-12-08T06:52:49.279Z,-0.38
2022-12-08T06:55:42.539Z,-0.32
2022-12-08T06:58:06.930Z,-0.23
2022-12-08T07:00:33.506Z,-0.19
2022-12-08T07:03:00.137Z,-0.21
2022-12-08T07:05:26.987Z,-0.22
2022-12-08T07:07:53.735Z,-0.15
2022-12-08T07:10:20.411Z,-0.11
2022-12-08T07:12:47.016Z,-0.11
2022-12-08T07:15:13.787Z,-0.16
2022-12-08T07:17:40.415Z,-0.06
2022-12-08T07:20:09.735Z,-0.11
2022-12-08T07:22:36.325Z,-0.22
2022-12-08T07:25:03.202Z,-0.15
2022-12-08T07:27:29.833Z,-0.10
2022-12-08T07:29:56.421Z,-0.08
2022-12-08T07:32:23.211Z,-0.05
2022-12-08T07:34:49.939Z,0.03
2022-12-08T07:37:16.597Z,0.04
2022-12-08T07:39:43.225Z,0.11
2022-12-08T07:42:09.908Z,0.15
2022-12-08T07:44:48.691Z,0.12
2022-12-08T07:47:15.422Z,0.33
2022-12-08T07:49:42.236Z,0.33
2022-12-08T07:52:09.100Z,0.33
2022-12-08T07:54:35.818Z,0.23
2022-12-08T07:57:03.737Z,0.12
2022-12-08T07:59:30.320Z,0.24
2022-12-08T08:02:21.313Z,0.42
2022-12-08T08:04:44.030Z,0.49
2022-12-08T08:07:11.667Z,0.56
2022-12-08T08:09:38.503Z,0.84
2022-12-08T08:12:30.365Z,0.91
2022-12-08T08:14:56.563Z,0.85
2022-12-08T08:17:23.265Z,0.83
2022-12-08T08:19:50.061Z,0.89
2022-12-08T08:22:18.910Z,0.84
2022-12-08T08:24:45.621Z,0.94
2022-12-08T08:27:12.725Z,1.01
2022-12-08T08:29:39.507Z,1.14
2022-12-08T08:32:06.247Z,1.12
2022-12-08T08:34:33.056Z,0.94
2022-12-08T08:36:59.745Z,0.97
2022-12-08T08:39:27.158Z,1.00
2022-12-08T08:41:53.847Z,1.04
2022-12-08T08:44:20.622Z,1.17
2022-12-08T08:46:47.322Z,1.43
2022-12-08T08:49:14.055Z,1.57
2022-12-08T08:51:40.883Z,1.57
2022-12-08T08:54:07.537Z,1.79
2022-12-08T08:56:34.126Z,2.02
2022-12-08T08:59:00.798Z,2.02
2022-12-08T09:01:28.743Z,2.04
2022-12-08T09:03:56.519Z,1.97
2022-12-08T09:06:24.844Z,2.10
2022-12-08T09:08:51.776Z,2.08
2022-12-08T09:11:23.566Z,2.17
2022-12-08T09:13:52.196Z,2.29
2022-12-08T09:19:29.456Z,2.06
2022-12-08T09:21:56.124Z,2.21
2022-12-08T09:24:23.286Z,2.28
2022-12-08T09:26:49.933Z,2.32
2022-12-08T09:29:17.894Z,2.35
2022-12-08T09:31:47.890Z,2.50
2022-12-08T09:34:14.747Z,2.38
2022-12-08T09:36:41.584Z,2.22
2022-12-08T09:39:08.252Z,2.41
2022-12-08T09:41:59.346Z,2.57
2022-12-08T09:44:44.695Z,2.93
2022-12-08T09:47:35.310Z,3.13
2022-12-08T09:50:07.545Z,3.15
2022-12-08T09:52:41.410Z,3.27
2022-12-08T09:55:40.554Z,3.37
2022-12-08T09:58:17.484Z,3.43
2022-12-08T10:00:44.243Z,3.63
2022-12-08T10:03:16.675Z,3.78
2022-12-08T10:05:54.299Z,3.70
2022-12-08T10:08:33.256Z,3.76
2022-12-08T10:11:07.784Z,3.92
2022-12-08T10:14:06.681Z,4.03
2022-12-08T10:16:39.496Z,4.36
2022-12-08T10:19:21.416Z,4.29
2022-12-08T10:21:48.983Z,4.42
2022-12-08T10:24:24.928Z,4.66
2022-12-08T10:26:51.556Z,4.72
2022-12-08T10:29:18.988Z,4.43
2022-12-08T10:31:45.723Z,4.38
2022-12-08T10:34:24.357Z,4.39
2022-12-08T10:36:59.113Z,4.33
2022-12-08T10:39:33.249Z,4.39
2022-12-08T10:42:15.748Z,4.45
2022-12-08T10:44:59.876Z,4.44
2022-12-08T10:47:28.684Z,4.57
2022-12-08T10:50:10.786Z,4.60
2022-12-08T10:52:41.268Z,4.67
2022-12-08T10:55:20.140Z,4.75
2022-12-08T10:57:49.048Z,4.78
2022-12-08T11:00:27.325Z,4.68
2022-12-08T11:03:00.131Z,4.71
2022-12-08T11:05:33.973Z,4.95
2022-12-08T11:08:01.869Z,4.98
2022-12-08T11:10:35.848Z,4.94
2022-12-08T11:13:06.330Z,4.98
2022-12-08T11:15:38.225Z,5.09
2022-12-08T11:18:28.635Z,5.13
2022-12-08T11:21:19.301Z,5.23
2022-12-08T11:23:50.485Z,5.29
2022-12-08T11:26:35.941Z,5.27
2022-12-08T11:29:02.667Z,5.22
2022-12-08T11:31:49.886Z,5.30
2022-12-08T11:34:55.645Z,5.32
2022-12-08T11:37:34.447Z,5.22
2022-12-08T11:40:07.246Z,5.23
2022-12-08T11:43:19.474Z,5.28
2022-12-08T11:45:50.011Z,5.33
2022-12-08T11:48:36.756Z,5.25
2022-12-08T11:51:24.695Z,5.18
2022-12-08T11:54:18.706Z,5.20
2022-12-08T11:56:53.409Z,5.21
2022-12-08T11:59:28.791Z,5.35
2022-12-08T12:01:57.000Z,5.37
2022-12-08T12:04:36.535Z,5.37
2022-12-08T12:07:03.149Z,5.47
2022-12-08T12:09:48.700Z,5.62
2022-12-08T12:12:41.361Z,5.72
2022-12-08T12:15:37.205Z,5.82
2022-12-08T12:18:11.993Z,5.89
2022-12-08T12:20:53.867Z,5.94
2022-12-08T12:23:48.043Z,6.04
2022-12-08T12:26:25.287Z,6.08
2022-12-08T12:28:52.686Z,6.05
2022-12-08T12:31:24.373Z,6.03
2022-12-08T12:33:53.536Z,6.02
2022-12-08T12:36:20.385Z,5.93
2022-12-08T12:39:04.241Z,5.76
2022-12-08T12:41:45.452Z,5.74
2022-12-08T12:44:12.021Z,5.76
2022-12-08T12:46:50.634Z,5.65
2022-12-08T12:49:43.930Z,5.60
2022-12-08T12:52:10.482Z,5.55
2022-12-08T12:54:43.255Z,5.66
2022-12-08T12:57:09.808Z,5.69
2022-12-08T13:00:05.519Z,5.79
2022-12-08T13:02:44.569Z,5.83
2022-12-08T13:05:18.779Z,5.85
2022-12-08T13:07:49.799Z,5.84
2022-12-08T13:10:19.102Z,5.79
2022-12-08T13:13:00.972Z,5.73
2022-12-08T13:15:35.670Z,5.79
2022-12-08T13:18:03.076Z,5.79
2022-12-08T13:20:29.913Z,5.78
2022-12-08T13:23:13.658Z,5.72
2022-12-08T13:25:40.195Z,5.64
2022-12-08T13:28:15.921Z,5.56
2022-12-08T13:30:44.125Z,5.52
2022-12-08T13:33:18.182Z,5.45
2022-12-08T13:35:49.050Z,5.38
2022-12-08T13:38:19.846Z,5.30
2022-12-08T13:40:47.352Z,5.21
2022-12-08T13:43:45.198Z,5.15
2022-12-08T13:47:09.296Z,5.09
2022-12-08T13:55:27.068Z,4.88
2022-12-08T13:57:36.393Z,4.77
2022-12-08T14:00:29.699Z,4.65
2022-12-08T14:02:58.751Z,4.63
2022-12-08T14:05:55.087Z,4.59
2022-12-08T14:15:38.659Z,4.21
2022-12-08T14:22:01.799Z,4.06
2022-12-08T14:24:32.484Z,4.06
2022-12-08T14:27:13.348Z,4.10
2022-12-08T14:29:45.904Z,4.00
2022-12-08T14:32:25.522Z,3.92
2022-12-08T14:35:26.988Z,3.89
2022-12-08T14:38:00.278Z,3.85
2022-12-08T14:40:41.704Z,3.77
2022-12-08T14:43:08.761Z,3.75
2022-12-08T14:45:38.534Z,3.67
2022-12-08T14:48:38.897Z,3.61
2022-12-08T14:51:24.372Z,3.60
2022-12-08T14:54:08.495Z,3.48
2022-12-08T14:56:50.339Z,3.43
2022-12-08T14:59:24.469Z,3.39
2022-12-08T15:01:54.649Z,3.33
2022-12-08T15:04:28.618Z,3.32
2022-12-08T15:07:12.861Z,3.25
2022-12-08T15:10:06.184Z,3.23
2022-12-08T15:12:36.035Z,3.23
2022-12-08T15:15:08.638Z,3.13
2022-12-08T15:17:48.827Z,3.05
2022-12-08T15:20:39.824Z,2.95
2022-12-08T15:23:17.736Z,2.95
2022-12-08T15:25:44.494Z,2.95
2022-12-08T15:28:18.525Z,2.93
2022-12-08T15:30:45.661Z,2.89
2022-12-08T15:33:12.320Z,2.92
2022-12-08T15:35:41.322Z,2.89
2022-12-08T15:38:24.799Z,2.83
2022-12-08T15:41:02.554Z,2.87
2022-12-08T15:43:31.401Z,2.88
2022-12-08T15:46:00.099Z,2.90
2022-12-08T15:48:32.527Z,2.88
2022-12-08T15:50:59.376Z,2.81
2022-12-08T15:53:26.376Z,2.81
2022-12-08T15:58:56.874Z,2.80
2022-12-08T16:01:24.585Z,2.79
2022-12-08T16:09:36.413Z,2.73
2022-12-08T16:12:22.063Z,2.69
2022-12-08T16:17:41.038Z,2.72
2022-12-08T16:20:13.365Z,2.60
2022-12-08T16:23:03.578Z,2.59
2022-12-08T16:25:33.373Z,2.52
2022-12-08T16:28:45.116Z,2.42
2022-12-08T16:30:56.958Z,2.27
2022-12-08T16:33:23.546Z,2.27
2022-12-08T16:35:50.154Z,2.31
2022-12-08T16:38:17.059Z,2.43
2022-12-08T16:41:04.086Z,2.49
2022-12-08T16:43:32.761Z,2.49
2022-12-08T16:45:59.985Z,2.55
2022-12-08T16:48:26.672Z,2.52
2022-12-08T16:50:55.860Z,2.48
2022-12-08T16:53:23.558Z,2.48
2022-12-08T16:55:51.247Z,2.48
2022-12-08T16:58:18.646Z,2.48
2022-12-08T17:00:45.318Z,2.51
2022-12-08T17:03:14.746Z,2.49
2022-12-08T17:05:41.780Z,2.45
2022-12-08T17:08:08.525Z,2.38
2022-12-08T17:10:39.447Z,2.33
2022-12-08T17:13:06.571Z,2.22
2022-12-08T17:15:33.341Z,2.08
2022-12-08T17:18:00.938Z,1.98
2022-12-08T17:20:30.900Z,2.02
2022-12-08T17:22:58.651Z,2.05
2022-12-08T17:25:28.838Z,2.16
2022-12-08T17:27:56.465Z,2.04
2022-12-08T17:30:23.287Z,2.05
2022-12-08T17:32:49.963Z,2.08
2022-12-08T17:35:16.615Z,2.05
2022-12-08T17:37:43.779Z,2.04
2022-12-08T17:40:10.711Z,2.05
2022-12-08T17:42:38.788Z,2.11
2022-12-08T17:45:07.540Z,2.18
2022-12-08T17:47:34.433Z,2.30
2022-12-08T17:50:01.099Z,2.34
2022-12-08T17:52:27.823Z,2.27
2022-12-08T17:54:54.440Z,2.21
2022-12-08T17:57:21.107Z,2.29
2022-12-08T17:59:47.728Z,2.21
2022-12-08T18:02:15.225Z,2.24
2022-12-08T18:04:41.872Z,2.24
2022-12-08T18:07:08.434Z,2.22
2022-12-08T18:09:35.121Z,2.25
2022-12-08T18:12:01.828Z,2.25
2022-12-08T18:14:28.583Z,2.30
2022-12-08T18:16:55.489Z,2.32
2022-12-08T18:19:22.377Z,2.36
2022-12-08T18:21:49.032Z,2.33
2022-12-08T18:24:19.381Z,2.38
2022-12-08T18:26:46.756Z,2.43
2022-12-08T18:29:13.612Z,2.46
2022-12-08T18:31:40.272Z,2.47
2022-12-08T18:34:07.000Z,2.50
2022-12-08T18:36:33.909Z,2.47
2022-12-08T18:39:03.374Z,2.40
2022-12-08T18:41:32.451Z,2.44
2022-12-08T18:43:59.103Z,2.40
2022-12-08T18:46:25.970Z,2.52
2022-12-08T18:48:53.120Z,2.37
2022-12-08T18:51:23.293Z,2.24
2022-12-08T18:53:50.151Z,2.30
2022-12-08T18:56:31.187Z,2.36
2022-12-08T18:59:03.272Z,2.16
2022-12-08T19:01:35.346Z,2.15
2022-12-08T19:06:52.054Z,2.34
2022-12-08T19:09:18.928Z,2.41
2022-12-08T19:11:45.495Z,2.38
2022-12-08T19:14:12.357Z,2.34
2022-12-08T19:16:38.921Z,2.28
2022-12-08T19:19:06.334Z,2.31
2022-12-08T19:21:33.310Z,2.27
2022-12-08T19:24:00.110Z,2.32
2022-12-08T19:26:27.852Z,2.35
2022-12-08T19:28:54.517Z,2.37
2022-12-08T19:31:21.298Z,2.42
2022-12-08T19:33:48.129Z,2.52
2022-12-08T19:36:17.905Z,2.53
2022-12-08T19:39:03.617Z,2.49
2022-12-08T19:41:49.090Z,2.51
2022-12-08T19:44:56.437Z,2.57
2022-12-08T19:47:27.222Z,2.53
2022-12-08T19:50:15.121Z,2.46
2022-12-08T19:52:42.549Z,2.43
2022-12-08T19:55:09.611Z,2.43
2022-12-08T19:57:36.233Z,2.47
2022-12-08T20:00:04.889Z,2.44
2022-12-08T20:02:31.622Z,2.50
2022-12-08T20:04:58.326Z,2.50
2022-12-08T20:07:24.978Z,2.47
2022-12-08T20:09:51.561Z,2.53
2022-12-08T20:12:18.224Z,2.62
2022-12-08T20:14:46.277Z,2.57
2022-12-08T20:17:16.017Z,2.52
2022-12-08T20:19:42.691Z,2.50
2022-12-08T20:22:09.447Z,2.41
2022-12-08T20:24:36.384Z,2.41
2022-12-08T20:27:03.194Z,2.56
2022-12-08T20:29:29.805Z,2.61
2022-12-08T20:31:56.528Z,2.56
2022-12-08T20:34:23.228Z,2.42
2022-12-08T20:36:49.914Z,2.49
2022-12-08T20:39:18.303Z,2.54
2022-12-08T20:41:46.209Z,2.51
2022-12-08T20:44:12.902Z,2.43
2022-12-08T20:46:41.063Z,2.38
2022-12-08T20:49:10.493Z,2.41
2022-12-08T20:51:37.296Z,2.42
2022-12-08T20:54:09.888Z,2.46
2022-12-08T20:56:36.525Z,2.45
2022-12-08T20:59:03.285Z,2.49
2022-12-08T21:01:30.209Z,2.49
2022-12-08T21:03:57.239Z,2.48
2022-12-08T21:06:26.994Z,2.49
2022-12-08T21:08:54.108Z,2.54
2022-12-08T21:11:20.839Z,2.54
2022-12-08T21:13:47.589Z,2.50
2022-12-08T21:16:15.685Z,2.51
2022-12-08T21:18:42.868Z,2.49
2022-12-08T21:21:12.615Z,2.51
2022-12-08T21:23:39.998Z,2.44
2022-12-08T21:26:12.414Z,2.38
2022-12-08T21:28:39.148Z,2.45
2022-12-08T21:31:08.277Z,2.40
2022-12-08T21:33:35.503Z,2.38
2022-12-08T21:36:21.786Z,2.40
2022-12-08T21:38:49.010Z,2.30
2022-12-08T21:41:40.124Z,2.33
2022-12-08T21:44:12.253Z,2.35
2022-12-08T21:46:39.357Z,2.36
2022-12-08T21:49:07.079Z,2.40
2022-12-08T21:51:37.914Z,2.42
2022-12-08T21:54:05.037Z,2.40
2022-12-08T21:56:31.883Z,2.39
2022-12-08T21:58:58.928Z,2.45
2022-12-08T22:01:25.729Z,2.41
2022-12-08T22:03:52.735Z,2.37
2022-12-08T22:06:19.385Z,2.41
2022-12-08T22:08:46.343Z,2.44
2022-12-08T22:11:13.305Z,2.47
2022-12-08T22:13:41.276Z,2.45
2022-12-08T22:16:10.545Z,2.50
2022-12-08T22:18:37.751Z,2.54
2022-12-08T22:21:15.468Z,2.58
2022-12-08T22:23:42.560Z,2.60
2022-12-08T22:26:09.451Z,2.64
2022-12-08T22:28:38.621Z,2.65
2022-12-08T22:31:17.172Z,2.63
2022-12-08T22:33:44.310Z,2.66
2022-12-08T22:36:22.899Z,2.67
2022-12-08T22:38:50.469Z,2.69
2022-12-08T22:41:18.150Z,2.71
2022-12-08T22:43:46.253Z,2.66
2022-12-08T22:46:15.667Z,2.54
2022-12-08T22:48:42.731Z,2.53
2022-12-08T22:51:10.683Z,2.57
2022-12-08T22:53:37.666Z,2.64
2022-12-08T22:56:09.810Z,2.72
2022-12-08T22:58:37.766Z,2.71
2022-12-08T23:01:04.850Z,2.74
2022-12-08T23:03:32.122Z,2.79
2022-12-08T23:05:59.202Z,2.73
2022-12-08T23:08:26.120Z,2.73
2022-12-08T23:10:54.253Z,2.74
2022-12-08T23:13:21.996Z,2.74
2022-12-08T23:15:48.862Z,2.72
2022-12-08T23:18:19.157Z,2.74
2022-12-08T23:20:47.599Z,2.74
2022-12-08T23:23:14.851Z,2.77
2022-12-08T23:25:42.560Z,2.75
2022-12-08T23:28:10.402Z,2.74
2022-12-08T23:30:40.394Z,2.80
2022-12-08T23:33:07.173Z,2.79
2022-12-08T23:35:34.071Z,2.80
2022-12-08T23:38:00.793Z,2.80
2022-12-08T23:40:27.541Z,2.81
2022-12-08T23:42:54.411Z,2.77
2022-12-08T23:45:21.217Z,2.78
2022-12-08T23:47:47.836Z,2.79
2022-12-08T23:50:14.556Z,2.77
2022-12-08T23:52:41.180Z,2.76
2022-12-08T23:55:08.438Z,2.76
2022-12-08T23:57:36.633Z,2.75
